Hackensack, Minnesota
Current Conditions -  °F | °C
As of 9:33 PM on Wednesday 22 Oct 2014 (Local Time) from KPWC Reporting Station
Broken Clouds Broken Clouds  
Wind Chill: 54°   Ceiling: 10000
Heat Index: 54°   Visibility: 10mi
Dew Point: 45°   Wind: 12mph
Humidity: 72%   Direction: 150°SSE
Pressure: 29.98"   Gusts: 18mph
Location:  46.93°N, 94.52°W
Report Text: KPWC 230233Z AUTO 15010G16KT 10SM BKN100 12/07 A2998 RMK AO2
Loading
Personal Weather Stations






























Interactive Weather Map
Tropical Storm Tracking
New forecast layout! Learn more

10-Day Weather Forecast

Advertisements
Track Severe Weather on mobile